2°C Temp
'.PHP_EOL;
-6°C Dewpoint
56% Humidity
Temperature
10 KM/H
6 MPH
5 KTS
340°
NNWdir

Wind
Partly Cloudy
Pressure 1014.22 (hPa)- 29.95 (in)
Visibility 40 (mi) - 64.4 (km)

Current Conditions
CYYC
Location 14(km)
Metar:
CYYC 241300Z 34005KT 40SM FEW080 FEW100 FEW210 02/M06 A2995 RMK ACC1AC1CI1 ACC TR AC TR ACC N-NE SLP170
Wed 24th April 07:00 am

Airport
  Metar Aviation API Data Provided by https://www.checkwx.com/ Icons created by weather34.com